Klik op de webcam foto voor een grotere versieKlik op de webcam foto voor een grotere versie
Of klik hier voor
de webcam video


Weerstation
Wilsele-Leuven:Website of another weatherstation



Nabijgelegen vliegvelden - METAR rapporten

   
EBBR - Vaartkom-Leuven
Gewijzigd: 29-01-2020 18:50
Gedeeltelijk bewolkt    Wind: ZW 11 km/h
Gedeeltelijk bewolkt
Wind: Wind: ZW 11 km/h
Temperatuur: 6°C
Voelt als: 4°C
Dauwpunt: 1°C
Vochtigheid: 71%
Barometer: 1012 hPa
Bewolking: Gedeeltelijk bewolkt
Zicht: meer dan 10 km
Bewolking: Gedeeltelijk bewolkt 1005.8 m
EBBR 291750Z 23006KT 9999 SCT033 06/01 Q1012 NOSIG
EBAW - Antwerp
Gewijzigd: 29-01-2020 18:50
Licht bewolkt    Wind: WZW 15 km/h
Licht bewolkt
Wind: Wind: WZW 15 km/h
Temperatuur: 7°C
Voelt als: 4°C
Dauwpunt: 1°C
Vochtigheid: 66%
Barometer: 1012 hPa
Bewolking: Licht bewolkt
Zicht: meer dan 10 km
Bewolking: Licht bewolkt 914.4 m
EBAW 291750Z 24008KT 9999 FEW030 07/01 Q1012 NOSIG
EBLG - Liège
Gewijzigd: 29-01-2020 18:50
Gedeeltelijk bewolkt    Wind: ZW 19 km/h
Gedeeltelijk bewolkt
Wind: Wind: ZW 19 km/h
Temperatuur: 4°C
Voelt als: 0°C
Dauwpunt: 0°C
Vochtigheid: 75%
Barometer: 1013 hPa
Bewolking: Gedeeltelijk bewolkt
Zicht: meer dan 10 km
Bewolking: Gedeeltelijk bewolkt 1219.2 m
EBLG 291750Z 23010KT 9999 SCT040 04/00 Q1013 NOSIG
EBCV - Mons/Bergen
Gewijzigd: 29-01-2020 18:55
Grotendeels bewolkt    Wind: ZW 19 km/h
Grotendeels bewolkt
Wind: Wind: ZW 19 km/h
Barometer: 1013 hPa
Bewolking: Grotendeels bewolkt
Zicht: meer dan 10 km
Bewolking: Grotendeels bewolkt 975.4 m,
Grotendeels bewolkt 5181.6 m
EBCV 291755Z AUTO 23010KT 9999 BKN032/// BKN170/// ///// Q1013 BLU
EHBK - Maastricht
Gewijzigd: 29-01-2020 18:55
Gedeeltelijk bewolkt    Wind: ZW 19 km/h
Gedeeltelijk bewolkt
Wind: Wind: ZW 19 km/h
Temperatuur: 5°C
Voelt als: 1°C
Dauwpunt: 1°C
Vochtigheid: 76%
Barometer: 1012 hPa
Bewolking: Gedeeltelijk bewolkt
Zicht: meer dan 10 km
Bewolking: Gedeeltelijk bewolkt
EHBK 291755Z AUTO 22010KT 9999 NSC 05/01 Q1012 NOSIG
ELLX - Luxemburg
Gewijzigd: 29-01-2020 18:50
Gedeeltelijk bewolkt    Wind: WZW 17 km/h
Gedeeltelijk bewolkt
Wind: Wind: WZW 17 km/h
Temperatuur: 4°C
Voelt als: 0°C
Dauwpunt: 2°C
Vochtigheid: 87%
Barometer: 1014 hPa
Bewolking: Gedeeltelijk bewolkt
Zicht: meer dan 10 km
Bewolking: Licht bewolkt 640.1 m,
Gedeeltelijk bewolkt 975.4 m
ELLX 291750Z AUTO 25009KT 9999 FEW021/// SCT032/// 04/02 Q1014 NOSIG
EBOS - Oostende
Gewijzigd: 29-01-2020 18:50
Licht bewolkt    Wind: WZW 22 km/h
Licht bewolkt
Wind: Wind: WZW 22 km/h
Temperatuur: 7°C
Voelt als: 3°C
Dauwpunt: 4°C
Vochtigheid: 81%
Barometer: 1012 hPa
Bewolking: Licht bewolkt
Zicht: meer dan 10 km
Bewolking: Licht bewolkt 670.6 m
EBOS 291750Z 24012KT 9999 FEW022 07/04 Q1012 NOSIG
  

Script ontwikkeld door  Saratoga-weather.org Aangepast voor de template door  Weerstation Leuven

U vindt ons ook hier:

UK Metoffice

WeatherCloud

European Weather Network

Weather Underground

Bernelux Weather Network

AWEKAS

WeatherlinkIP

Citizen Weather Observer Program (CWOP)

HAMweather, WeatherForYou, PWS Weather

Apparatuur in gebruik:

Weer-station
Davis VUE

Weer-programma
Meteobridge

Weer-computer
Nano-SD

Webleverancier
Robohost

Davis VUE

Meteobridge

Nano-SD

Robohost